Racecast

Kenya Herring

East End Lightning T&F Youth Development (VA) · 8 · Compare head to head

Athlete rating 118.6 2025 TF season
Best race 118.6 TF
Races 143
Seasons 5 2021 — 2026

RankedNation #8486·NC #234·Team #6 ?

Rating scale ?

Track & Field

2026 TF

East End Lightning T&F Youth Development (VA) · Grade 8

Date Meet Event Result Place Rating Difficulty PR/SR Flags
2026-06-13 AAU Virginia District Qualifier - South 200m 26.06 3rd · 2nd on team -0.046
2026-06-13 AAU Virginia District Qualifier - South 100m 12.54 3rd · 2nd on team -0.046
2026-05-16 2026 Technique Relays 400m 1:04.25 5th · 1st on team -0.043
2026-03-22 Adidas Indoor National 60m 8.12 18th · 4th on team -0.042
2026-03-22 Adidas Indoor National 200m 26.72 13th · 3rd on team -0.042
2026-03-06 AAU Indoor National Championship 200m 26.68 15th · 3rd on team -0.042
2026-03-06 AAU Indoor National Championship 200m 26.77 18th · 4th on team -0.042
2026-02-28 BWSP Queens and Kings Championships 200m 28.17 9th · 5th on team -0.034
2026-02-28 BWSP Queens and Kings Championships 55m 7.54 7th · 5th on team -0.034
2026-02-28 BWSP Queens and Kings Championships 55m 7.5 5th · 3rd on team -0.034
2026-02-22 3rd Annual HRH Winter Storm Classic 200m 27.47 2nd · 2nd on team -0.034
2026-02-22 3rd Annual HRH Winter Storm Classic 55m 7.55 5th · 3rd on team -0.034
2026-02-22 3rd Annual HRH Winter Storm Classic 55m 7.62 7th · 4th on team -0.034
2026-01-31 BWSP Queens and Kings - Meet 3 55m 7.78 7th · 1st on team -0.034
2026-01-11 Lighting Track Classic 60m 8.06 3rd · 2nd on team -0.042
2026-01-11 Lighting Track Classic 200m 26.39 2nd · 1st on team -0.042
2026-01-11 Lighting Track Classic 60m 8.02 2nd · 1st on team -0.042 ★PR SR
2026-01-03 BWSP Queens and Kings - Meet 1 55m 7.34 1st · 1st on team -0.034 ★PR SR
2026-01-03 BWSP Queens and Kings - Meet 1 400m 1:02.78 1st · 1st on team -0.034 SR
2026-01-03 BWSP Queens and Kings - Meet 1 55m 7.48 5th · 4th on team -0.034
2025-12-21 Grant Holloway Invite 60m 8.05 1st · 1st on team -0.042 PR SR
2025-12-21 Grant Holloway Invite 60m 8.15 4th · 2nd on team -0.042
2025-12-14 VB Oceanfront Invitational 400m 1:07.26 3rd · 3rd on team -0.042 SR
2025-12-14 VB Oceanfront Invitational 200m 27.31 2nd · 2nd on team -0.042
2025-12-14 VB Oceanfront Invitational 60m 8.09 2nd · 2nd on team -0.042 PR SR
2025-08-02 AAU Junior Olympic Games 100m 12.54 5th · 1st on team -0.041 SR
2025-08-02 AAU Junior Olympic Games 200m 25.89 24th · 2nd on team -0.041 SR
2025-08-02 AAU Junior Olympic Games 100m 12.85 27th · 3rd on team -0.041
2025-08-02 AAU Junior Olympic Games 200m 25.76 19th · 1st on team -0.041 SR
2025-08-02 AAU Junior Olympic Games 100m 12.6 9th · 2nd on team -0.041

2025 TF 118.6

East End Lightning T&F Youth Development (VA) · Grade 7

Date Meet Event Result Place Rating Difficulty PR/SR Flags
2025-07-12 Cannonball Cooper Invite 100m 12.62 1st · 1st on team -0.041
2025-06-25 AAU Track & Field Region 5 Qualifier 200m 26.19 2nd · 2nd on team -0.042
2025-06-25 AAU Track & Field Region 5 Qualifier 200m 25.66 1st · 1st on team -0.042 ★PR SR
2025-06-25 AAU Track & Field Region 5 Qualifier 100m 12.53 1st · 1st on team -0.042
2025-06-25 AAU Track & Field Region 5 Qualifier 100m 12.77 4th · 4th on team -0.042
2025-06-22 adidas Track & Field Nationals 400m 1:01.02 16th · 1st on team -0.046 ★PR SR
2025-06-14 AAU Virginia District Qualifier (Southern) 100m 12.97 2nd · 2nd on team -0.051
2025-06-14 AAU Virginia District Qualifier (Southern) 200m 25.94 1st · 1st on team -0.051
2025-05-31 Va Beach Flames Invite 200m 26.62 1st · 1st on team -0.032
2025-05-31 Va Beach Flames Invite 100m 12.94 2nd · 2nd on team -0.032
2025-05-31 Va Beach Flames Invite 100m 12.92 1st · 1st on team -0.032
2025-05-25 HR Hurricanes CAT 5 Invite 200m 26.52 2nd · 1st on team -0.043
2025-05-10 Legends Invitational hosted by Eastend Lightning 200m 26.44 1st · 1st on team -0.044
2025-05-10 Legends Invitational hosted by Eastend Lightning 100m 12.43 1st · 1st on team -0.044 ★PR SR
2025-05-04 Queen Harrison Youth Invite 200m 27.45 1st · 1st on team -0.046
2025-05-04 Queen Harrison Youth Invite 400m 1:03.68 2nd · 1st on team -0.046 PR SR
2025-05-04 Queen Harrison Youth Invite 100m 12.86 1st · 1st on team -0.046 PR SR
2025-03-07 AAU Indoor National Championships 200m 25.89 1st · 1st on team -0.042 PR SR
2025-03-07 AAU Indoor National Championships 200m 26.74 8th · 2nd on team -0.042
2025-02-22 BWSP Queens and Kings Championships 55m 7.45 2nd · 2nd on team -0.021
2025-02-22 BWSP Queens and Kings Championships 200m 27.04 2nd · 1st on team -0.021
2025-02-22 BWSP Queens and Kings Championships 55m 7.44 1st · 1st on team -0.021
2025-02-16 HRH Winter Storm Classic 200m 26.97 2nd · 2nd on team -0.021
2025-02-16 HRH Winter Storm Classic 400m 1:04.18 3rd · 2nd on team -0.021 PR SR
2025-02-01 BWSP Queens and Kings - Meet 3 55m 7.55 4th · 4th on team -0.021
2025-02-01 BWSP Queens and Kings - Meet 3 400m 1:04.94 2nd · 1st on team -0.021 PR SR
2025-02-01 BWSP Queens and Kings - Meet 3 200m 27 1st · 1st on team -0.021
2025-02-01 BWSP Queens and Kings - Meet 3 55m 7.43 2nd · 2nd on team -0.021 PR SR
2025-01-04 BWSP Queens and Kings - Meet 1 lj 12' 7" -0.034
2025-01-04 BWSP Queens and Kings - Meet 1 55m 7.54 3rd · 3rd on team -0.034 PR SR
2025-01-04 BWSP Queens and Kings - Meet 1 55m 7.49 1st · 1st on team -0.034 PR SR
2025-01-04 BWSP Queens and Kings - Meet 1 200m 27.12 1st · 1st on team -0.034
2024-12-22 Grant Holloway Invite '24 200m 27.12 3rd · 2nd on team -0.042
2024-12-22 Grant Holloway Invite '24 60m 8.25 9th · 4th on team -0.042 PR SR
2024-12-22 Grant Holloway Invite '24 60m 8.16 6th · 2nd on team -0.042 PR SR
2024-12-22 Grant Holloway Invite '24 400m 1:06.16 5th · 1st on team -0.042 PR SR
2024-08-03 AAU Junior Olympic Games lj 3.95m -0.046
2024-08-03 AAU Junior Olympic Games shot 6.70m -0.046
2024-08-03 AAU Junior Olympic Games hj 1.15m -0.046
2024-08-03 AAU Junior Olympic Games 200m 27.08 20th · 2nd on team -0.046 PR SR
2024-08-03 AAU Junior Olympic Games 200m 26.88 15th · 1st on team -0.046 PR SR
2024-08-03 AAU Junior Olympic Games 80mh 15.01 26th · 2nd on team -0.046 ★PR SR
2024-08-03 AAU Junior Olympic Games 800m 2:46.17 56th · 2nd on team 118.6 -0.046 ★PR ★R SR RSR

2024 TF 111.8

East End Lightning T&F Youth Development (VA) · Grade 6

Date Meet Event Result Place Rating Difficulty PR/SR Flags
2024-07-13 Cannonball Cooper Invite 80mh 15.2 4th · 2nd on team -0.037 PR SR
2024-06-29 AAU Region 05 National Qualifier lj 3.90m -0.042
2024-06-29 AAU Region 05 National Qualifier shot 5.36m -0.042
2024-06-29 AAU Region 05 National Qualifier hj 1.16m -0.042
2024-06-29 AAU Region 05 National Qualifier 800m 2:56.77 6th · 2nd on team 111.8 -0.042 PR R SR RSR
2024-06-29 AAU Region 05 National Qualifier 80mh 15.46 1st · 1st on team -0.042 PR SR
2024-06-29 AAU Region 05 National Qualifier 200m 27.56 1st · 1st on team -0.042 PR SR
2024-06-29 AAU Region 05 National Qualifier 200m 28.16 5th · 2nd on team -0.042
2024-06-08 AAU Virginia South District Qualifier 200m 28.58 4th · 1st on team -0.043 PR SR
2024-06-01 VB Flames Invitational 80mh 17.98 6th · 2nd on team -0.032
2024-06-01 VB Flames Invitational 100m 14.12 21st · 6th on team -0.032
2024-06-01 VB Flames Invitational 200m 28.68 14th · 6th on team -0.032 PR SR
2024-05-18 Lightning Relays 80mh 17.36 5th · 3rd on team -0.043
2024-05-18 Lightning Relays 200m 29.91 13th · 5th on team -0.043
2024-05-11 2024 EE Lightning "Legends" Invite 80mh 16.34 6th · 2nd on team -0.052 PR SR
2024-05-11 2024 EE Lightning "Legends" Invite 100m 13.71 6th · 4th on team -0.052
2024-05-05 2024 Technique Relays 100m 13.71 3rd · 2nd on team -0.024 PR SR
2024-04-13 Speed Capital Richmond 200m 29.62 4th · 2nd on team -0.046
2024-04-13 Speed Capital Richmond 400m 1:12.35 5th · 3rd on team -0.046
2024-04-13 Speed Capital Richmond 100m 13.83 6th · 3rd on team -0.046 PR SR
2024-04-13 Speed Capital Richmond 100m 13.88 7th · 4th on team -0.046
2024-03-03 AAU Indoor National Champonships 60m 8.66 15th · 2nd on team -0.042 PR SR
2024-02-24 BWSP Queens and Kings: Meet 4 55m 8.04 8th · 4th on team -0.034 PR SR
2024-02-24 BWSP Queens and Kings: Meet 4 200m 29.42 5th · 4th on team -0.034 PR SR
2024-02-24 BWSP Queens and Kings: Meet 4 55m 8 7th · 3rd on team -0.034 PR SR
2024-02-18 HRH Winter Storm Classic 55m 8.07 6th · 3rd on team -0.034 PR SR
2024-01-28 2024 Track757 Indoor Invitational 60m 8.97 16th · 1st on team -0.042
2024-01-28 2024 Track757 Indoor Invitational 400m 1:09.17 14th · 2nd on team -0.042 PR SR
2024-01-28 2024 Track757 Indoor Invitational 200m 30.11 12th · 2nd on team -0.042
2024-01-20 BWSP Queens and Kings shot 15' 1" -0.021
2024-01-20 BWSP Queens and Kings 55m 8.25 18th · 4th on team -0.021 PR SR
2024-01-20 BWSP Queens and Kings 200m 30.02 7th · 2nd on team -0.021 PR SR
2024-01-14 VA Showcase Club 60m 8.97 20th · 1st on team -0.042 PR SR
2024-01-06 BWSP Queens and Kings 400m 1:18.31 17th · 3rd on team -0.034 PR SR
2024-01-06 BWSP Queens and Kings 200m 32.18 19th · 3rd on team -0.034 SR
2024-01-06 BWSP Queens and Kings 55m 8.56 21st · 1st on team -0.034 PR SR

2022 TF

East End Lightning T&F Youth Development (VA) · Grade 4

Date Meet Event Result Place Rating Difficulty PR/SR Flags
2022-06-26 AAU Region 05 National Qualifier hj .97m -0.036
2022-06-26 AAU Region 05 National Qualifier shot 3.68m -0.036
2022-06-26 AAU Region 05 National Qualifier 100m 14.92 8th · 4th on team -0.036 PR SR
2022-06-26 AAU Region 05 National Qualifier 200m 31.11 5th · 4th on team -0.036 PR SR
2022-06-26 AAU Region 05 National Qualifier 100m 14.9 7th · 3rd on team -0.036 PR SR
2022-06-26 AAU Region 05 National Qualifier 200m 32.56 12th · 7th on team -0.036
2022-01-30 Track 757 Invitational 60m 9.35 8th · 3rd on team -0.042 PR SR
2022-01-30 Track 757 Invitational 400m 1:23.21 19th · 3rd on team -0.042 PR SR
2021-12-19 Grant Holloway AAU Invitational 60m 9.65 3rd · 3rd on team -0.042 PR SR
2021-12-19 Grant Holloway AAU Invitational 60m 9.66 4th · 4th on team -0.042
2021-08-01 USATF National Junior Olympic Championships 100m 15.52 26th · 3rd on team -0.042 PR SR
2021-08-01 USATF National Junior Olympic Championships 200m 33.28 38th · 5th on team -0.042 SR
2021-08-01 USATF National Junior Olympic Championships 100m 15.53 27th · 4th on team -0.042

2021 TF

East End Lightning T&F Youth Development (VA) · Grade 3

Date Meet Event Result Place Rating Difficulty PR/SR Flags
2021-07-10 34th Cannonball Cooper Age Group Championship 100m 15.53 2nd · 1st on team -0.041 PR SR
2021-07-10 34th Cannonball Cooper Age Group Championship 200m 32.69 5th · 3rd on team -0.041 PR SR
2021-06-27 AAU Region 05 National Qualifier 200m 33.9 13th · 5th on team -0.041
2021-06-27 AAU Region 05 National Qualifier 100m 16.16 9th · 4th on team -0.041
2021-06-27 AAU Region 05 National Qualifier 200m 33.99 14th · 6th on team -0.041
2021-06-27 AAU Region 05 National Qualifier 100m 15.87 5th · 3rd on team -0.041
2021-06-12 AAU Virginia Primary Championships 200m 33.36 3rd · 2nd on team -0.041 PR SR
2021-06-12 AAU Virginia Primary Championships 100m 15.84 3rd · 2nd on team -0.041 PR SR
2021-06-05 DMV 14 Under Outdoor Championship 200m 34.98 4th · 2nd on team -0.038 PR SR
2021-05-29 PWC Panthers I-95 Invitational 200m 35.02 1st · 1st on team -0.038 PR SR
2021-05-29 PWC Panthers I-95 Invitational 100m 16.29 2nd · 2nd on team -0.038
2021-05-08 Maggie Walker Legends Invitational shot 11-05.50 -0.032
2021-05-08 Maggie Walker Legends Invitational 100m 16.23 2nd · 2nd on team -0.032 PR SR
2021-05-08 Maggie Walker Legends Invitational 200m 35.16 4th · 3rd on team -0.032 PR SR
2021-05-02 804 RJT Meet 200m 36.78 2nd · 1st on team -0.046
2021-05-02 804 RJT Meet 400m 1:28.7 5th · 2nd on team -0.046 PR SR
2021-03-14 AAU Indoor National Championships shot 10-09.75 -0.042
2021-03-14 AAU Indoor National Championships 60m 10.11 6th · 1st on team -0.042 PR SR
2021-03-14 AAU Indoor National Championships 200m 36.12 12th · 2nd on team -0.042 PR SR
2021-03-14 AAU Indoor National Championships 60m 10.12 8th · 2nd on team -0.042
2021-03-14 AAU Indoor National Championships 200m 36.02 11th · 1st on team -0.042 PR SR